Time;durP1;ratioP1;P1;durP2;ratioP2;P2;SDS_P1;SDS_P2;PMS_P1;PMS_P2;Temp;Humidity;BMP_temperature;BMP_pressure;BME280_temperature;BME280_humidity;BME280_pressure;Samples;Min_cycle;Max_cycle;Signal;HPM_P1;HPM_P2
2021/06/01 00:00:16;;;;;;;1.30;0.30;;;16.70;48.70;;;;;;4700280;30;20048;-84
2021/06/01 00:02:46;;;;;;;1.35;0.30;;;16.60;48.70;;;;;;4715129;30;20052;-84
2021/06/01 00:05:13;;;;;;;1.17;0.43;;;16.60;48.80;;;;;;4714976;30;21016;-85
2021/06/01 00:07:40;;;;;;;1.08;0.50;;;16.60;49.00;;;;;;4698550;30;20049;-84
2021/06/01 00:10:08;;;;;;;1.70;0.50;;;16.60;49.00;;;;;;4712686;30;20044;-84
2021/06/01 00:12:35;;;;;;;2.30;0.40;;;16.50;49.00;;;;;;4698317;30;20044;-84
2021/06/01 00:15:05;;;;;;;1.67;0.40;;;16.50;49.10;;;;;;4703603;30;20494;-84
2021/06/01 00:17:31;;;;;;;1.35;0.40;;;16.50;49.20;;;;;;4704493;30;20040;-84
2021/06/01 00:19:58;;;;;;;1.15;0.40;;;16.40;49.10;;;;;;4711765;30;20048;-84
2021/06/01 00:22:25;;;;;;;1.77;0.30;;;16.40;49.30;;;;;;4714655;30;20126;-83
2021/06/01 00:24:51;;;;;;;2.22;0.43;;;16.40;49.30;;;;;;4708465;30;20069;-83
2021/06/01 00:27:18;;;;;;;2.03;0.50;;;16.30;49.50;;;;;;4716821;30;20052;-83
2021/06/01 00:29:44;;;;;;;2.00;0.50;;;16.30;50.30;;;;;;4727956;30;20059;-86
2021/06/01 00:32:11;;;;;;;2.15;0.40;;;16.30;49.80;;;;;;4724435;30;20051;-87
2021/06/01 00:34:37;;;;;;;4.38;0.40;;;16.30;50.60;;;;;;4700130;30;20408;-87
2021/06/01 00:37:04;;;;;;;1.20;0.40;;;16.30;50.00;;;;;;4711345;30;20040;-87
2021/06/01 00:39:30;;;;;;;1.10;0.40;;;16.20;49.90;;;;;;4726425;30;20489;-87
2021/06/01 00:41:57;;;;;;;2.05;0.50;;;16.20;50.00;;;;;;4735451;30;20056;-86
2021/06/01 00:44:24;;;;;;;1.60;0.40;;;16.20;50.00;;;;;;4721471;30;20056;-87
2021/06/01 00:46:50;;;;;;;2.60;0.65;;;16.20;50.10;;;;;;4716286;30;20759;-87
2021/06/01 00:49:17;;;;;;;1.63;0.70;;;16.20;50.00;;;;;;4727653;30;20063;-85
2021/06/01 00:51:46;;;;;;;1.90;0.63;;;16.20;50.20;;;;;;4743976;30;20048;-86
2021/06/01 00:54:13;;;;;;;1.40;0.40;;;16.10;50.30;;;;;;4723246;30;20516;-86
2021/06/01 00:56:42;;;;;;;1.05;0.30;;;16.10;50.30;;;;;;4712339;30;20041;-86
2021/06/01 00:59:08;;;;;;;1.15;0.40;;;16.10;50.40;;;;;;4724166;30;20048;-86
2021/06/01 01:01:35;;;;;;;0.88;0.40;;;16.00;50.70;;;;;;4710157;30;20497;-85
2021/06/01 01:04:02;;;;;;;1.30;0.40;;;16.00;50.70;;;;;;4747271;30;20052;-86
2021/06/01 01:06:43;;;;;;;1.55;0.50;;;15.90;50.90;;;;;;4696539;30;20052;-85
2021/06/01 01:09:13;;;;;;;3.80;0.50;;;15.90;51.10;;;;;;4706953;30;20069;-86
2021/06/01 01:11:58;;;;;;;2.17;0.40;;;15.90;51.20;;;;;;4737872;30;20055;-86
2021/06/01 01:14:42;;;;;;;1.85;0.40;;;15.80;52.00;;;;;;4749843;30;20408;-85
2021/06/01 01:17:37;;;;;;;1.40;0.50;;;15.80;51.50;;;;;;4746068;30;20044;-86
2021/06/01 01:20:07;;;;;;;0.98;0.47;;;15.70;51.70;;;;;;4729893;30;20521;-86
2021/06/01 01:22:44;;;;;;;3.10;0.47;;;15.70;51.80;;;;;;4721008;30;20039;-86
2021/06/01 01:25:16;;;;;;;1.40;0.40;;;15.70;52.00;;;;;;4732148;30;20040;-86
2021/06/01 01:27:59;;;;;;;2.28;0.40;;;15.60;52.00;;;;;;4733534;30;20032;-86
2021/06/01 01:30:33;;;;;;;2.00;0.38;;;15.60;52.30;;;;;;4716658;30;20056;-86
2021/06/01 01:33:00;;;;;;;2.15;0.50;;;15.50;52.40;;;;;;4734709;30;20047;-86
2021/06/01 01:35:31;;;;;;;1.20;0.43;;;15.50;52.80;;;;;;4705082;30;20048;-86
2021/06/01 01:38:00;;;;;;;2.05;0.40;;;15.40;52.80;;;;;;4720358;30;20032;-85
2021/06/01 01:40:29;;;;;;;1.45;0.40;;;15.40;53.00;;;;;;4734581;30;20070;-85
2021/06/01 01:43:03;;;;;;;1.20;0.50;;;15.40;53.10;;;;;;4724546;30;20056;-86
2021/06/01 01:45:33;;;;;;;1.02;0.40;;;15.30;53.30;;;;;;4730333;30;20048;-86
2021/06/01 01:51:19;;;;;;;1.30;0.50;;;15.20;53.70;;;;;;4745235;30;20056;-86
2021/06/01 01:53:50;;;;;;;1.63;0.60;;;15.20;53.70;;;;;;4719005;30;20044;-85
2021/06/01 01:56:19;;;;;;;1.92;0.40;;;15.10;54.00;;;;;;4749804;30;20103;-85
2021/06/01 01:58:49;;;;;;;1.48;0.50;;;15.10;54.20;;;;;;4707541;30;20408;-85
2021/06/01 02:01:17;;;;;;;0.77;0.30;;;15.00;54.40;;;;;;4746173;30;20036;-85
2021/06/01 02:03:45;;;;;;;1.00;0.40;;;15.00;54.50;;;;;;4694014;30;20059;-86
2021/06/01 02:06:12;;;;;;;1.67;0.50;;;14.90;54.60;;;;;;4716985;30;20044;-86
2021/06/01 02:08:40;;;;;;;3.40;0.50;;;14.80;54.80;;;;;;4746565;30;20576;-87
2021/06/01 02:11:08;;;;;;;1.48;0.40;;;14.80;55.00;;;;;;4722558;30;20052;-87
2021/06/01 02:13:54;;;;;;;1.95;0.50;;;14.80;55.00;;;;;;4723051;30;20068;-86
2021/06/01 02:16:21;;;;;;;1.80;0.60;;;14.80;55.50;;;;;;4731495;30;20060;-88
2021/06/01 02:18:48;;;;;;;1.17;0.50;;;14.70;55.70;;;;;;4726629;30;20059;-88
2021/06/01 02:21:33;;;;;;;0.95;0.50;;;14.70;55.70;;;;;;4707175;30;20048;-86
2021/06/01 02:24:07;;;;;;;1.27;0.57;;;14.60;56.00;;;;;;4718627;30;20044;-86
2021/06/01 02:26:55;;;;;;;1.65;0.40;;;14.50;56.20;;;;;;4731372;30;20040;-86
2021/06/01 02:29:30;;;;;;;1.85;0.50;;;14.50;56.40;;;;;;4732746;30;20048;-87
2021/06/01 02:32:00;;;;;;;1.00;0.50;;;14.50;56.60;;;;;;4733290;30;20047;-83
2021/06/01 02:34:27;;;;;;;1.38;0.40;;;14.40;56.70;;;;;;4712068;30;20048;-86
2021/06/01 02:36:54;;;;;;;1.95;0.60;;;14.40;56.70;;;;;;4717293;30;20040;-83
2021/06/01 02:39:22;;;;;;;1.15;0.50;;;14.30;56.80;;;;;;4724390;30;20052;-82
2021/06/01 02:41:50;;;;;;;1.67;0.40;;;14.30;56.80;;;;;;4732063;30;20044;-83
2021/06/01 02:44:17;;;;;;;1.08;0.60;;;14.30;57.10;;;;;;4732209;30;20050;-83
2021/06/01 02:46:46;;;;;;;1.67;0.60;;;14.20;57.20;;;;;;4714865;30;20055;-86
2021/06/01 02:49:15;;;;;;;2.38;0.50;;;14.20;57.30;;;;;;4714300;30;20055;-85
2021/06/01 02:51:42;;;;;;;0.90;0.45;;;14.20;57.30;;;;;;4732540;30;20063;-85
2021/06/01 02:54:10;;;;;;;2.55;0.93;;;14.10;57.50;;;;;;4717652;30;20047;-85
2021/06/01 02:56:38;;;;;;;1.42;0.73;;;14.10;58.00;;;;;;4693644;30;20067;-85
2021/06/01 02:59:07;;;;;;;1.40;0.45;;;14.10;58.10;;;;;;4717940;30;20044;-84
2021/06/01 03:01:34;;;;;;;1.00;0.47;;;14.00;58.00;;;;;;4729590;30;20056;-85
2021/06/01 03:04:01;;;;;;;1.30;0.50;;;14.00;58.10;;;;;;4728427;30;20531;-86
2021/06/01 03:06:29;;;;;;;1.75;0.60;;;14.00;58.20;;;;;;4722699;30;20542;-81
2021/06/01 03:08:55;;;;;;;2.17;0.80;;;14.00;58.40;;;;;;4732592;30;20052;-86
2021/06/01 03:11:22;;;;;;;1.73;0.70;;;14.00;58.60;;;;;;4733706;30;20059;-85
2021/06/01 03:13:50;;;;;;;1.13;0.43;;;13.90;58.60;;;;;;4748086;30;20059;-86
2021/06/01 03:16:18;;;;;;;1.55;0.47;;;13.90;58.60;;;;;;4723407;30;20421;-85
2021/06/01 03:18:45;;;;;;;1.35;0.50;;;13.90;58.70;;;;;;4736733;30;20531;-86
2021/06/01 03:21:12;;;;;;;3.75;0.90;;;13.90;58.80;;;;;;4725116;30;20048;-79
2021/06/01 03:23:43;;;;;;;2.70;1.55;;;13.80;59.00;;;;;;4746050;30;20052;-84
2021/06/01 03:26:09;;;;;;;1.23;0.60;;;13.80;59.10;;;;;;4727741;30;20417;-82
2021/06/01 03:28:36;;;;;;;2.72;0.65;;;13.80;59.20;;;;;;4722347;30;20052;-82
2021/06/01 03:31:03;;;;;;;2.25;0.70;;;13.70;59.40;;;;;;4730932;30;20052;-82
2021/06/01 03:33:30;;;;;;;1.10;0.55;;;13.70;59.50;;;;;;4727687;30;20032;-82
2021/06/01 03:35:57;;;;;;;1.60;0.60;;;13.70;59.70;;;;;;4745838;30;20036;-82
2021/06/01 03:38:24;;;;;;;1.73;0.70;;;13.60;59.60;;;;;;4745996;30;20406;-82
2021/06/01 03:40:52;;;;;;;1.48;0.50;;;13.70;59.80;;;;;;4745677;30;20052;-81
2021/06/01 03:43:19;;;;;;;1.27;0.50;;;13.60;59.90;;;;;;4745731;30;20060;-82
2021/06/01 03:45:46;;;;;;;1.60;0.70;;;13.70;60.10;;;;;;4743861;30;20067;-82
2021/06/01 03:48:12;;;;;;;2.60;0.80;;;13.60;60.10;;;;;;4738548;30;20044;-82
2021/06/01 03:50:39;;;;;;;1.95;0.80;;;13.70;60.30;;;;;;4745566;30;20055;-85
2021/06/01 03:53:05;;;;;;;2.10;1.13;;;13.60;60.30;;;;;;4723502;30;20076;-82
2021/06/01 03:55:32;;;;;;;1.88;0.60;;;13.60;60.60;;;;;;4736320;30;20055;-84
2021/06/01 03:57:59;;;;;;;1.75;0.50;;;13.60;60.50;;;;;;4709158;30;20492;-84
2021/06/01 04:00:29;;;;;;;3.05;0.88;;;13.60;60.50;;;;;;4722418;30;20055;-84
2021/06/01 04:02:56;;;;;;;1.73;0.57;;;13.60;61.40;;;;;;4728592;30;20063;-84
2021/06/01 04:05:23;;;;;;;1.85;0.50;;;13.70;60.90;;;;;;4716049;30;20044;-84
2021/06/01 04:07:50;;;;;;;1.67;0.65;;;13.70;60.90;;;;;;4715916;30;20052;-84
2021/06/01 04:10:17;;;;;;;2.42;0.70;;;13.70;61.20;;;;;;4722653;30;20056;-85
2021/06/01 04:12:44;;;;;;;2.28;0.43;;;13.80;61.30;;;;;;4722373;30;20052;-80
2021/06/01 04:15:11;;;;;;;2.97;0.50;;;13.80;61.10;;;;;;4730202;30;20051;-84
2021/06/01 04:17:37;;;;;;;2.33;0.60;;;13.80;61.10;;;;;;4744185;30;20384;-84
2021/06/01 04:20:06;;;;;;;1.45;0.60;;;13.90;61.80;;;;;;4730215;30;20409;-84
2021/06/01 04:22:33;;;;;;;1.80;0.50;;;14.00;61.20;;;;;;4730435;30;20766;-81
2021/06/01 04:24:59;;;;;;;0.77;0.40;;;14.00;61.10;;;;;;4745051;30;20056;-81
2021/06/01 04:27:26;;;;;;;2.65;0.60;;;14.10;61.10;;;;;;4725065;30;20059;-83
2021/06/01 04:29:53;;;;;;;2.50;1.05;;;14.20;61.10;;;;;;4743367;30;20060;-81
2021/06/01 04:32:20;;;;;;;3.75;0.90;;;14.30;61.10;;;;;;4726853;30;20060;-79
2021/06/01 04:34:46;;;;;;;1.67;0.70;;;14.40;61.20;;;;;;4743845;30;20417;-79
2021/06/01 04:37:13;;;;;;;5.07;0.90;;;14.50;61.20;;;;;;4744735;30;20397;-80
2021/06/01 04:39:39;;;;;;;3.63;0.93;;;14.50;61.00;;;;;;4707581;30;20063;-80
2021/06/01 04:42:06;;;;;;;3.92;0.93;;;14.60;60.90;;;;;;4742760;30;20060;-79
2021/06/01 04:44:33;;;;;;;2.05;0.55;;;14.80;60.80;;;;;;4719701;30;20055;-81
2021/06/01 04:47:00;;;;;;;2.60;0.60;;;14.90;60.80;;;;;;4728255;30;20496;-78
2021/06/01 04:49:27;;;;;;;2.00;0.68;;;15.00;60.60;;;;;;4744370;30;21064;-78
2021/06/01 04:51:53;;;;;;;1.98;0.70;;;15.10;60.50;;;;;;4744962;30;20040;-78
2021/06/01 04:54:20;;;;;;;6.30;0.70;;;15.30;60.40;;;;;;4720866;30;20055;-79
2021/06/01 04:56:46;;;;;;;2.13;0.70;;;15.40;60.20;;;;;;4727552;30;20134;-78
2021/06/01 04:59:13;;;;;;;1.27;0.70;;;15.50;60.00;;;;;;4727811;30;20055;-77
2021/06/01 05:01:39;;;;;;;2.65;0.65;;;15.70;60.00;;;;;;4729211;30;20063;-78
2021/06/01 05:04:06;;;;;;;3.05;0.70;;;15.70;59.80;;;;;;4729013;30;20068;-78
2021/06/01 05:06:34;;;;;;;2.20;0.70;;;15.90;59.60;;;;;;4727356;30;20596;-80
2021/06/01 05:09:03;;;;;;;1.92;0.90;;;16.00;59.50;;;;;;4728704;30;20048;-79
2021/06/01 05:11:30;;;;;;;1.48;0.73;;;16.10;59.30;;;;;;4744511;30;20041;-80
2021/06/01 05:13:57;;;;;;;2.03;0.77;;;16.20;59.10;;;;;;4721538;30;20372;-85
2021/06/01 05:16:23;;;;;;;1.50;0.60;;;16.40;58.90;;;;;;4694472;30;20084;-84
2021/06/01 05:18:50;;;;;;;2.97;0.88;;;16.50;58.90;;;;;;4714780;30;20048;-85
2021/06/01 05:21:17;;;;;;;2.22;0.95;;;16.60;58.50;;;;;;4732415;30;20501;-84
2021/06/01 05:23:43;;;;;;;2.03;0.80;;;16.70;58.40;;;;;;4716717;30;20511;-85
2021/06/01 05:26:10;;;;;;;1.90;0.85;;;16.80;58.30;;;;;;4729668;30;20044;-85
2021/06/01 05:28:37;;;;;;;2.88;0.70;;;17.00;58.10;;;;;;4731150;30;20056;-84
2021/06/01 05:31:16;;;;;;;2.05;0.90;;;17.10;57.80;;;;;;4717134;30;20059;-85
2021/06/01 05:33:48;;;;;;;2.00;0.88;;;17.30;57.60;;;;;;4719516;30;20040;-85
2021/06/01 05:36:17;;;;;;;2.95;0.90;;;17.40;57.50;;;;;;4729607;30;20055;-85
2021/06/01 05:38:44;;;;;;;3.00;0.88;;;17.50;57.20;;;;;;4731047;30;20045;-85
2021/06/01 05:41:10;;;;;;;2.05;0.90;;;17.60;56.70;;;;;;4745422;30;20085;-84
2021/06/01 05:43:38;;;;;;;2.53;1.10;;;17.70;56.70;;;;;;4716765;30;20063;-86
2021/06/01 05:46:05;;;;;;;3.38;1.20;;;17.80;56.70;;;;;;4717334;30;20382;-86
2021/06/01 05:48:32;;;;;;;3.97;1.00;;;17.90;56.50;;;;;;4748273;30;20417;-85
2021/06/01 05:50:59;;;;;;;2.30;0.80;;;18.00;56.10;;;;;;4733581;30;20413;-85
2021/06/01 05:53:26;;;;;;;2.22;0.98;;;18.10;56.00;;;;;;4745659;30;20047;-85
2021/06/01 05:55:53;;;;;;;1.42;0.70;;;18.20;56.30;;;;;;4733252;30;20831;-86
2021/06/01 05:58:21;;;;;;;4.07;1.52;;;18.30;55.60;;;;;;4738543;30;20048;-85
2021/06/01 06:00:47;;;;;;;2.30;0.93;;;18.50;55.60;;;;;;4740843;30;20052;-86
2021/06/01 06:03:15;;;;;;;2.38;1.00;;;18.70;55.10;;;;;;4734800;30;20055;-86
2021/06/01 06:05:44;;;;;;;2.15;0.77;;;18.90;54.30;;;;;;4731641;30;20048;-84
2021/06/01 06:08:18;;;;;;;3.05;1.30;;;19.10;54.20;;;;;;4730294;30;20485;-76
2021/06/01 06:10:46;;;;;;;2.25;1.02;;;19.30;53.90;;;;;;4744193;30;20048;-77
2021/06/01 06:13:13;;;;;;;3.53;0.95;;;19.50;53.40;;;;;;4745547;30;20040;-81
2021/06/01 06:15:40;;;;;;;3.25;1.13;;;19.80;53.10;;;;;;4742447;30;20052;-80
2021/06/01 06:18:23;;;;;;;2.83;0.90;;;20.10;52.30;;;;;;4730296;30;20393;-80
2021/06/01 06:20:49;;;;;;;;;;;20.40;51.70;;;;;;4724001;30;20044;-81
2021/06/01 06:23:16;;;;;;;3.63;1.15;;;20.80;51.50;;;;;;4730807;30;19922;-80
2021/06/01 06:25:42;;;;;;;5.00;1.35;;;21.00;50.50;;;;;;4715107;30;20400;-80
2021/06/01 06:28:09;;;;;;;5.75;1.60;;;21.00;49.80;;;;;;4729900;30;20055;-81
2021/06/01 06:30:35;;;;;;;2.55;1.08;;;21.00;49.70;;;;;;4728594;30;20059;-81
2021/06/01 06:33:02;;;;;;;1.98;1.08;;;21.00;50.00;;;;;;4730599;30;20055;-80
2021/06/01 06:35:29;;;;;;;2.50;1.30;;;21.00;50.00;;;;;;4742976;30;20060;-80
2021/06/01 06:37:55;;;;;;;2.72;1.05;;;21.00;50.20;;;;;;4707837;30;20060;-79
2021/06/01 06:40:22;;;;;;;2.60;1.00;;;21.10;50.30;;;;;;4732678;30;20068;-80
2021/06/01 06:42:48;;;;;;;2.83;1.42;;;21.20;50.00;;;;;;4717909;30;20492;-81
2021/06/01 06:45:16;;;;;;;5.03;1.42;;;21.40;50.20;;;;;;4717267;30;20048;-81
2021/06/01 06:47:56;;;;;;;3.83;1.38;;;21.40;49.50;;;;;;4743316;30;20059;-80
2021/06/01 06:50:26;;;;;;;3.38;1.40;;;21.40;49.30;;;;;;4703682;30;20055;-80
2021/06/01 06:52:52;;;;;;;4.43;1.65;;;21.40;49.40;;;;;;4729309;30;20052;-80
2021/06/01 06:55:19;;;;;;;4.22;1.70;;;21.40;49.70;;;;;;4729310;30;20054;-80
2021/06/01 06:57:46;;;;;;;5.43;1.67;;;21.40;49.60;;;;;;4728894;30;20040;-80
2021/06/01 07:00:15;;;;;;;3.97;1.65;;;21.40;49.60;;;;;;4719008;30;20493;-79
2021/06/01 07:02:42;;;;;;;3.58;1.73;;;21.50;49.80;;;;;;4719939;30;20048;-80
2021/06/01 07:05:16;;;;;;;3.22;1.40;;;21.60;49.60;;;;;;4714252;30;20059;-80
2021/06/01 07:07:42;;;;;;;5.88;1.73;;;21.60;49.40;;;;;;4743352;30;20048;-78
2021/06/01 07:10:13;;;;;;;2.55;1.55;;;21.60;50.20;;;;;;4729184;30;20048;-78
2021/06/01 07:12:42;;;;;;;5.80;1.73;;;21.70;49.30;;;;;;4717459;30;20044;-78
2021/06/01 07:15:23;;;;;;;3.42;1.52;;;21.80;49.30;;;;;;4727795;30;20051;-78
2021/06/01 07:17:54;;;;;;;4.68;1.60;;;21.80;49.30;;;;;;4743774;30;20052;-77
2021/06/01 07:20:21;;;;;;;3.33;1.48;;;21.80;49.10;;;;;;4716164;30;20052;-78
2021/06/01 07:22:47;;;;;;;7.82;1.58;;;21.80;49.30;;;;;;4744954;30;20071;-77
2021/06/01 07:25:14;;;;;;;4.75;1.15;;;21.80;49.50;;;;;;4698121;30;21544;-79
2021/06/01 07:27:40;;;;;;;3.53;1.45;;;21.90;49.50;;;;;;4729087;30;20051;-79
2021/06/01 07:30:09;;;;;;;2.97;1.63;;;21.90;49.60;;;;;;4727752;30;20048;-78
2021/06/01 07:32:36;;;;;;;2.38;1.90;;;22.10;49.60;;;;;;4730902;30;20056;-79
2021/06/01 07:35:02;;;;;;;1.98;1.27;;;22.10;49.30;;;;;;4728129;30;20059;-80
2021/06/01 07:37:29;;;;;;;3.88;2.00;;;22.20;49.40;;;;;;4743255;30;20055;-80
2021/06/01 07:39:56;;;;;;;3.53;1.88;;;22.20;50.20;;;;;;4704852;30;20048;-80
2021/06/01 07:42:23;;;;;;;6.85;2.33;;;22.30;49.50;;;;;;4743121;30;20593;-80
2021/06/01 07:44:49;;;;;;;2.78;1.90;;;22.40;49.60;;;;;;4744596;30;20532;-80
2021/06/01 07:47:16;;;;;;;3.92;1.65;;;22.50;49.50;;;;;;4741100;30;20051;-80
2021/06/01 07:49:42;;;;;;;2.55;1.80;;;22.60;49.60;;;;;;4742096;30;20044;-80
2021/06/01 07:52:09;;;;;;;6.15;2.17;;;22.60;49.50;;;;;;4718350;30;20520;-80
2021/06/01 07:54:35;;;;;;;2.83;2.03;;;22.70;49.70;;;;;;4729240;30;20105;-80
2021/06/01 07:57:02;;;;;;;4.75;1.85;;;22.90;49.40;;;;;;4708068;30;20040;-80
2021/06/01 07:59:28;;;;;;;2.92;1.90;;;23.00;49.00;;;;;;4743991;30;20055;-80
2021/06/01 08:01:55;;;;;;;2.85;1.60;;;23.10;49.10;;;;;;4737440;30;20063;-80
2021/06/01 08:04:21;;;;;;;5.13;1.38;;;23.20;49.20;;;;;;4744386;30;20056;-80
2021/06/01 08:06:48;;;;;;;2.90;1.40;;;23.30;49.10;;;;;;4742063;30;20056;-79
2021/06/01 08:09:14;;;;;;;3.35;1.48;;;23.40;49.00;;;;;;4742505;30;20056;-80
2021/06/01 08:11:41;;;;;;;3.50;1.67;;;23.60;48.70;;;;;;4743624;30;20040;-80
2021/06/01 08:14:07;;;;;;;4.05;1.38;;;23.70;48.60;;;;;;4743238;30;20055;-79
2021/06/01 08:16:34;;;;;;;4.00;2.00;;;23.80;48.60;;;;;;4740350;30;20048;-78
2021/06/01 08:19:07;;;;;;;2.92;1.95;;;23.80;48.00;;;;;;4742880;30;20370;-80
2021/06/01 08:24:18;;;;;;;5.43;2.10;;;23.90;48.10;;;;;;4743083;30;20051;-82
2021/06/01 08:26:45;;;;;;;5.57;2.03;;;23.90;48.10;;;;;;4740463;30;20048;-83
2021/06/01 08:29:13;;;;;;;2.75;1.55;;;24.00;48.10;;;;;;4730707;30;20052;-82
2021/06/01 08:31:43;;;;;;;5.75;1.90;;;24.00;47.90;;;;;;4716598;30;20079;-84
2021/06/01 08:34:11;;;;;;;2.80;2.13;;;24.10;47.80;;;;;;4713644;30;20056;-85
2021/06/01 08:36:37;;;;;;;6.00;1.80;;;24.20;47.50;;;;;;4717080;30;20056;-85
2021/06/01 08:39:08;;;;;;;3.30;1.60;;;24.20;47.40;;;;;;4728265;30;20051;-82
2021/06/01 08:41:37;;;;;;;4.28;1.88;;;24.20;46.90;;;;;;4714290;30;20044;-84
2021/06/01 08:44:05;;;;;;;3.40;2.17;;;24.30;46.80;;;;;;4734212;30;20060;-84
2021/06/01 08:46:33;;;;;;;3.80;1.60;;;24.40;47.00;;;;;;4739266;30;20051;-83
2021/06/01 08:48:59;;;;;;;4.30;1.33;;;24.40;46.80;;;;;;4727503;30;20060;-80
2021/06/01 08:51:27;;;;;;;5.47;3.50;;;24.50;46.60;;;;;;4714201;30;20052;-80
2021/06/01 08:53:57;;;;;;;3.33;2.05;;;24.60;46.20;;;;;;4716525;30;20036;-82
2021/06/01 08:56:24;;;;;;;5.53;2.65;;;24.70;45.80;;;;;;4730939;30;20063;-82
2021/06/01 08:58:51;;;;;;;3.67;1.42;;;24.70;45.10;;;;;;4719107;30;20528;-82
2021/06/01 09:01:19;;;;;;;2.20;1.63;;;24.70;45.20;;;;;;4733680;30;20422;-81
2021/06/01 09:03:51;;;;;;;2.38;1.38;;;24.70;44.80;;;;;;4731376;30;20087;-80
2021/06/01 09:11:58;;;;;;;3.58;1.65;;;24.80;43.20;;;;;;4746424;30;20413;-82
2021/06/01 09:23:04;;;;;;;3.78;1.40;;;25.10;44.00;;;;;;4734462;30;20060;-82
2021/06/01 09:25:48;;;;;;;3.15;1.60;;;25.20;43.70;;;;;;4720179;30;20059;-83
2021/06/01 09:28:16;;;;;;;2.35;1.15;;;25.30;43.90;;;;;;4725249;30;20047;-82
2021/06/01 09:30:51;;;;;;;4.47;1.60;;;25.40;44.20;;;;;;4706587;30;20060;-82
2021/06/01 09:33:18;;;;;;;3.28;1.55;;;25.50;43.80;;;;;;4732149;30;20044;-82
2021/06/01 09:36:03;;;;;;;2.97;1.10;;;25.60;43.70;;;;;;4728002;30;20425;-83
2021/06/01 09:38:43;;;;;;;5.25;1.73;;;25.70;43.50;;;;;;4746287;30;20048;-81
2021/06/01 09:41:15;;;;;;;3.13;1.27;;;25.90;43.30;;;;;;4738308;30;20063;-78
2021/06/01 09:43:58;;;;;;;2.58;1.77;;;26.00;43.10;;;;;;4725300;30;20412;-82
2021/06/01 09:46:33;;;;;;;3.75;1.17;;;26.10;42.40;;;;;;4734550;30;20520;-81
2021/06/01 09:49:15;;;;;;;2.60;1.10;;;26.10;42.30;;;;;;4742627;30;20047;-82
2021/06/01 09:52:03;;;;;;;4.50;1.45;;;26.10;41.80;;;;;;4724499;30;20048;-81
2021/06/01 09:54:38;;;;;;;2.72;1.35;;;26.20;42.10;;;;;;4732036;30;20505;-82
2021/06/01 09:57:20;;;;;;;3.40;1.08;;;26.30;41.20;;;;;;4744771;30;20063;-82
2021/06/01 10:00:13;;;;;;;3.28;0.80;;;26.30;40.50;;;;;;4746724;30;20056;-82
2021/06/01 10:03:02;;;;;;;1.60;0.90;;;26.50;40.00;;;;;;4730700;30;20413;-83
2021/06/01 10:05:31;;;;;;;2.85;1.10;;;26.60;39.60;;;;;;4736306;30;20059;-83
2021/06/01 10:08:09;;;;;;;4.40;0.90;;;26.60;39.60;;;;;;4731837;30;20052;-82
2021/06/01 10:10:35;;;;;;;2.45;1.05;;;26.70;39.90;;;;;;4745109;30;20078;-82
2021/06/01 10:13:05;;;;;;;2.28;0.90;;;26.80;38.40;;;;;;4737452;30;20067;-81
2021/06/01 10:15:33;;;;;;;3.28;0.90;;;26.90;38.30;;;;;;4745449;30;20043;-82
2021/06/01 10:18:02;;;;;;;2.47;1.05;;;26.90;37.60;;;;;;4707790;30;20067;-83
2021/06/01 10:20:31;;;;;;;4.05;1.00;;;26.90;37.30;;;;;;4747346;30;20519;-83
2021/06/01 10:23:00;;;;;;;1.42;0.65;;;26.90;36.50;;;;;;4725340;30;20048;-81
2021/06/01 10:25:27;;;;;;;3.85;0.82;;;26.90;37.00;;;;;;4729333;30;20056;-82
2021/06/01 10:27:58;;;;;;;4.63;1.70;;;27.00;36.50;;;;;;4738277;30;20501;-83
2021/06/01 10:30:27;;;;;;;2.78;1.08;;;27.10;37.10;;;;;;4717178;30;20043;-80
2021/06/01 10:33:04;;;;;;;1.48;0.73;;;27.30;37.60;;;;;;4722616;30;20048;-81
2021/06/01 10:35:51;;;;;;;1.63;0.80;;;27.60;37.40;;;;;;4728759;30;20052;-81
2021/06/01 10:52:12;;;;;;;1.80;0.60;;;28.70;35.40;;;;;;4723129;30;19921;-82
2021/06/01 10:54:43;;;;;;;9.77;8.43;;;29.00;34.20;;;;;;4744899;30;20059;-82
2021/06/01 10:57:12;;;;;;;5.50;4.97;;;29.30;33.60;;;;;;4717163;30;20040;-83
2021/06/01 11:02:25;;;;;;;1.80;1.20;;;29.80;32.10;;;;;;4729009;30;20048;-81
2021/06/01 11:05:01;;;;;;;2.00;0.80;;;30.00;32.10;;;;;;4719199;30;20056;-83
2021/06/01 11:07:42;;;;;;;1.80;0.70;;;30.20;32.00;;;;;;4718222;30;20518;-84
2021/06/01 11:10:10;;;;;;;1.88;0.60;;;30.40;31.50;;;;;;4705263;30;20162;-84
2021/06/01 11:12:37;;;;;;;1.50;0.70;;;30.60;32.10;;;;;;4717926;30;20063;-84
2021/06/01 11:15:25;;;;;;;2.20;0.70;;;30.80;30.60;;;;;;4707252;30;20052;-83
2021/06/01 11:17:52;;;;;;;2.42;0.63;;;31.00;30.80;;;;;;4728434;30;21236;-85
2021/06/01 11:20:29;;;;;;;3.13;0.85;;;31.30;30.10;;;;;;4705465;30;20485;-84
2021/06/01 11:23:42;;;;;;;2.70;0.70;;;31.70;29.60;;;;;;4718907;30;20043;-84
2021/06/01 11:33:57;;;;;;;3.08;0.60;;;32.80;28.70;;;;;;4721890;30;20044;-84
2021/06/01 11:36:36;;;;;;;2.03;0.80;;;33.00;28.80;;;;;;4730337;30;20069;-83
2021/06/01 11:39:26;;;;;;;2.70;0.85;;;33.30;28.20;;;;;;4714948;30;20055;-85
2021/06/01 11:44:24;;;;;;;1.42;0.60;;;32.90;28.10;;;;;;4702105;30;20044;-86
2021/06/01 11:46:57;;;;;;;;;;;33.00;28.50;;;;;;4715120;30;20067;-85
2021/06/01 11:52:09;;;;;;;1.88;0.70;;;33.70;28.50;;;;;;4730088;30;20312;-85
2021/06/01 11:54:37;;;;;;;1.73;0.70;;;34.10;28.10;;;;;;4716038;30;20482;-87
2021/06/01 11:57:25;;;;;;;2.90;1.52;;;34.40;27.80;;;;;;4707146;30;20048;-85
2021/06/01 12:03:02;;;;;;;1.65;0.65;;;34.50;26.70;;;;;;4726583;30;20115;-84
2021/06/01 12:11:54;;;;;;;5.18;2.75;;;34.40;26.90;;;;;;4736151;30;20055;-83
2021/06/01 12:19:34;;;;;;;2.53;0.90;;;35.10;27.10;;;;;;4727953;30;20051;-87
2021/06/01 12:22:00;;;;;;;4.35;0.90;;;35.40;26.50;;;;;;4700692;30;20048;-83
2021/06/01 12:24:27;;;;;;;0.98;0.52;;;35.40;27.10;;;;;;4730385;30;20056;-84
2021/06/01 12:43:47;;;;;;;1.50;0.75;;;37.20;26.20;;;;;;4744021;30;20040;-84
2021/06/01 12:46:27;;;;;;;2.47;0.82;;;37.00;25.60;;;;;;4740275;30;20048;-83
2021/06/01 13:21:01;;;;;;;3.47;0.60;;;37.70;25.50;;;;;;4705418;30;20311;-84
2021/06/01 13:40:36;;;;;;;1.00;0.60;;;38.70;24.90;;;;;;4728763;30;20055;-84
2021/06/01 13:46:06;;;;;;;1.02;0.50;;;39.20;24.40;;;;;;4744091;30;20063;-81
2021/06/01 13:56:12;;;;;;;1.30;0.57;;;39.90;24.30;;;;;;4743552;30;20059;-82
2021/06/01 14:21:02;;;;;;;1.33;0.60;;;40.40;23.30;;;;;;4718654;30;20048;-82
2021/06/01 15:32:14;;;;;;;1.38;0.60;;;39.30;23.60;;;;;;4742459;30;20558;-83
2021/06/01 16:29:53;;;;;;;5.13;0.55;;;27.40;31.60;;;;;;4741660;30;20078;-80
2021/06/01 16:32:40;;;;;;;1.25;0.68;;;27.30;31.80;;;;;;4729629;30;20052;-82
2021/06/01 16:43:40;;;;;;;1.25;0.60;;;26.80;32.60;;;;;;4742238;30;20056;-79
2021/06/01 17:05:39;;;;;;;2.05;0.60;;;26.10;32.40;;;;;;4743327;30;20056;-80
2021/06/01 17:13:31;;;;;;;2.53;0.50;;;26.00;32.60;;;;;;4745286;30;20052;-78
2021/06/01 17:15:58;;;;;;;2.47;0.50;;;25.90;32.70;;;;;;4716257;30;20489;-79
2021/06/01 17:21:42;;;;;;;1.10;0.60;;;25.80;33.00;;;;;;4746971;30;20055;-79
2021/06/01 17:24:21;;;;;;;2.03;0.70;;;25.80;33.10;;;;;;4736082;30;20055;-79
2021/06/01 17:34:36;;;;;;;1.02;0.70;;;25.50;32.40;;;;;;4747380;30;20047;-79
2021/06/01 17:35:21;;;;;;;1.45;0.60;;;25.40;32.50;;;;;;4720312;30;20075;-79
2021/06/01 17:37:48;;;;;;;4.82;0.50;;;25.40;32.90;;;;;;4721229;30;20052;-79
2021/06/01 17:40:18;;;;;;;1.00;0.60;;;25.30;33.20;;;;;;4731576;30;20051;-78
2021/06/01 17:42:50;;;;;;;1.92;0.70;;;25.30;33.30;;;;;;4731976;30;20052;-77
2021/06/01 17:45:25;;;;;;;5.90;3.30;;;25.30;33.40;;;;;;4731476;30;20043;-78
2021/06/01 17:48:08;;;;;;;1.63;1.00;;;25.20;33.40;;;;;;4746228;30;20060;-78
2021/06/01 17:50:36;;;;;;;1.30;0.65;;;25.10;33.50;;;;;;4731597;30;20500;-78
2021/06/01 17:53:04;;;;;;;1.75;0.70;;;25.10;33.70;;;;;;4745049;30;20039;-77
2021/06/01 17:55:33;;;;;;;1.00;0.70;;;25.10;33.90;;;;;;4728679;30;20056;-78
2021/06/01 17:58:01;;;;;;;2.08;0.98;;;25.00;33.80;;;;;;4715734;30;20040;-78
2021/06/01 18:00:28;;;;;;;2.50;0.80;;;25.00;34.00;;;;;;4716648;30;20385;-79
2021/06/01 18:02:55;;;;;;;5.03;1.70;;;24.90;34.10;;;;;;4747434;30;20051;-79
2021/06/01 18:05:31;;;;;;;2.40;0.90;;;24.90;34.40;;;;;;4729851;30;21361;-79
2021/06/01 18:08:39;;;;;;;1.50;0.70;;;24.80;34.60;;;;;;4728325;30;20047;-79
2021/06/01 19:06:26;;;;;;;2.13;1.20;;;23.50;41.00;;;;;;4725863;30;20056;-80
2021/06/01 19:25:39;;;;;;;2.10;0.63;;;22.90;42.30;;;;;;4725775;30;20056;-80
2021/06/01 19:50:19;;;;;;;4.57;1.20;;;22.00;44.00;;;;;;4729176;30;20083;-83
2021/06/01 19:52:51;;;;;;;1.20;0.60;;;21.90;44.10;;;;;;4741385;30;20055;-83
2021/06/01 19:55:20;;;;;;;2.17;0.60;;;21.90;44.20;;;;;;4718004;30;20052;-82
2021/06/01 19:57:50;;;;;;;1.48;0.63;;;21.80;44.20;;;;;;4742339;30;20056;-83
2021/06/01 20:00:18;;;;;;;1.77;0.80;;;21.70;44.20;;;;;;4729070;30;20047;-83
2021/06/01 20:02:44;;;;;;;2.83;0.60;;;21.70;44.20;;;;;;4743220;30;20068;-83
2021/06/01 20:05:13;;;;;;;1.73;0.60;;;21.70;44.40;;;;;;4742733;30;20619;-81